Brierfield, Alabama
Current Conditions -  °F | °C
As of 12:53 PM on Friday 21 Nov 2014 (Local Time) from KEET Reporting Station
Clear Clear  
Wind Chill: 65°   Ceiling: Unl
Heat Index: 65°   Visibility: 10mi
Dew Point: 45°   Wind: 3mph
Humidity: 48%   Direction: 80°E
Pressure: 30.34"   Gusts: NA
Location:  33.04°N, 86.91°W
Report Text: KEET 211853Z AUTO 08003KT 10SM CLR 18/07 A3034 RMK AO2 SLP270 T01830072
Loading
Personal Weather Stations






























Interactive Weather Map New forecast layout! Learn more

10-Day Weather Forecast

Advertisements
Track Severe Weather on mobile